Time;durP1;ratioP1;P1;durP2;ratioP2;P2;SDS_P1;SDS_P2;PMS_P1;PMS_P2;Temp;Humidity;BMP_temperature;BMP_pressure;BME280_temperature;BME280_humidity;BME280_pressure;Samples;Min_cycle;Max_cycle;Signal;HPM_P1;HPM_P2
2021/10/10 00:02:04;;;;;;;0.30;0.30;;;;;;;8.16;100.00;98359.59;5017698;28;20085;-86
2021/10/10 00:04:52;;;;;;;0.55;0.55;;;;;;;8.27;100.00;98364.50;5021205;28;20025;-86
2021/10/10 00:07:18;;;;;;;0.57;0.45;;;;;;;8.30;100.00;98365.28;5028482;28;20028;-86
2021/10/10 00:09:44;;;;;;;1.15;0.63;;;;;;;8.28;100.00;98358.25;5021760;28;20033;-86
2021/10/10 00:12:09;;;;;;;0.63;0.52;;;;;;;8.28;100.00;98368.94;5038319;28;20083;-86
2021/10/10 00:14:35;;;;;;;1.60;0.80;;;;;;;8.35;100.00;98375.75;5017379;28;20029;-86
2021/10/10 00:17:01;;;;;;;1.10;0.63;;;;;;;8.27;100.00;98377.84;5017167;28;20030;-85
2021/10/10 00:19:26;;;;;;;0.35;0.35;;;;;;;8.26;100.00;98368.09;5023700;28;20018;-86
2021/10/10 00:21:52;;;;;;;2.28;1.17;;;;;;;8.24;100.00;98362.84;5024381;28;20028;-86
2021/10/10 00:24:17;;;;;;;0.32;0.32;;;;;;;8.36;100.00;98366.84;5014919;28;20025;-86
2021/10/10 00:26:43;;;;;;;0.80;0.68;;;;;;;8.40;100.00;98368.47;5037238;28;20025;-86
2021/10/10 00:29:08;;;;;;;0.30;0.30;;;;;;;8.30;100.00;98361.75;5020978;28;20044;-86
2021/10/10 00:31:34;;;;;;;0.85;0.73;;;;;;;8.31;100.00;98363.47;5013713;28;20033;-86
2021/10/10 00:33:59;;;;;;;0.40;0.40;;;;;;;8.27;100.00;98361.84;5014763;28;20034;-86
2021/10/10 00:36:25;;;;;;;1.88;1.17;;;;;;;8.30;100.00;98361.75;5027033;28;20045;-86
2021/10/10 00:38:50;;;;;;;0.22;0.17;;;;;;;8.27;100.00;98351.19;5047165;28;20096;-86
2021/10/10 00:41:16;;;;;;;0.85;0.50;;;;;;;8.24;100.00;98353.97;5025144;28;20461;-86
2021/10/10 00:43:41;;;;;;;0.65;0.38;;;;;;;8.26;100.00;98355.63;5020396;28;20056;-86
2021/10/10 00:46:07;;;;;;;0.85;0.57;;;;;;;8.22;100.00;98348.69;5022066;28;20060;-86
2021/10/10 00:48:33;;;;;;;0.65;0.52;;;;;;;8.25;100.00;98353.03;5019962;28;20029;-86
2021/10/10 00:50:58;;;;;;;0.38;0.38;;;;;;;8.35;100.00;98354.44;5027214;28;20029;-86
2021/10/10 00:53:24;;;;;;;3.20;0.95;;;;;;;8.37;100.00;98347.22;5042477;28;20021;-86
2021/10/10 00:55:54;;;;;;;0.03;0.03;;;;;;;8.33;100.00;98342.97;5021896;28;20017;-86
2021/10/10 00:58:24;;;;;;;0.32;0.32;;;;;;;8.32;100.00;98343.91;5018207;28;20029;-86
2021/10/10 01:00:51;;;;;;;0.52;0.52;;;;;;;8.30;100.00;98345.75;5033338;28;20029;-86
2021/10/10 01:03:17;;;;;;;0.43;0.43;;;;;;;8.23;100.00;98345.09;5040657;28;20382;-86
2021/10/10 01:05:42;;;;;;;0.32;0.32;;;;;;;8.31;100.00;98344.81;5025095;28;20117;-86
2021/10/10 01:08:08;;;;;;;0.10;0.10;;;;;;;8.34;100.00;98344.69;5016481;28;20025;-86
2021/10/10 01:10:35;;;;;;;1.90;0.43;;;;;;;8.30;100.00;98338.66;5021500;28;20025;-86
2021/10/10 01:13:00;;;;;;;0.30;0.22;;;;;;;8.23;100.00;98328.25;5025125;28;20041;-86
2021/10/10 01:15:28;;;;;;;0.60;0.35;;;;;;;8.35;100.00;98343.78;5019962;28;20059;-86
2021/10/10 01:17:53;;;;;;;1.60;1.08;;;;;;;8.23;100.00;98321.13;5015866;28;20139;-86
2021/10/10 01:20:20;;;;;;;0.65;0.52;;;;;;;8.23;100.00;98336.25;5018247;28;20052;-86
2021/10/10 01:22:46;;;;;;;0.30;0.30;;;;;;;8.18;100.00;98337.28;5018565;28;20412;-86
2021/10/10 01:25:11;;;;;;;1.42;0.68;;;;;;;8.20;100.00;98342.56;5023968;28;20033;-86
2021/10/10 01:27:37;;;;;;;0.45;0.38;;;;;;;7.99;100.00;98304.31;5018313;28;20087;-86
2021/10/10 01:30:03;;;;;;;0.55;0.30;;;;;;;8.09;100.00;98320.81;5022497;28;20032;-86
2021/10/10 01:32:29;;;;;;;1.25;0.45;;;;;;;8.18;100.00;98329.28;5024174;28;20115;-86
2021/10/10 01:34:55;;;;;;;5.85;2.28;;;;;;;8.16;100.00;98323.16;5015892;28;20044;-88
2021/10/10 01:37:20;;;;;;;1.08;0.63;;;;;;;8.21;100.00;98327.44;5031990;28;20052;-85
2021/10/10 01:39:46;;;;;;;0.17;0.17;;;;;;;8.18;100.00;98326.63;5015515;28;20025;-86
2021/10/10 01:42:11;;;;;;;0.30;0.20;;;;;;;8.22;100.00;98324.69;5015602;28;20034;-86
2021/10/10 01:44:37;;;;;;;0.20;0.20;;;;;;;8.25;100.00;98321.03;5012014;28;20083;-86
2021/10/10 01:47:02;;;;;;;0.75;0.75;;;;;;;8.24;100.00;98327.31;5015292;28;20108;-86
2021/10/10 01:49:28;;;;;;;0.20;0.20;;;;;;;8.31;100.00;98326.16;5015161;28;20049;-85
2021/10/10 01:51:54;;;;;;;0.25;0.25;;;;;;;8.29;100.00;98330.69;5015020;28;20033;-86
2021/10/10 01:54:20;;;;;;;0.77;0.75;;;;;;;8.24;100.00;98325.53;5015326;28;20026;-85
2021/10/10 01:56:45;;;;;;;0.63;0.55;;;;;;;8.18;100.00;98329.28;5015024;28;20033;-85
2021/10/10 01:59:11;;;;;;;0.25;0.25;;;;;;;8.16;100.00;98325.81;5031612;28;20026;-85
2021/10/10 02:01:36;;;;;;;0.30;0.30;;;;;;;8.22;100.00;98332.69;5012898;28;20503;-85
2021/10/10 02:04:02;;;;;;;1.17;0.45;;;;;;;8.21;100.00;98332.78;5031646;28;20033;-86
2021/10/10 02:06:28;;;;;;;0.40;0.35;;;;;;;8.26;100.00;98339.66;5015098;28;20025;-85
2021/10/10 02:08:53;;;;;;;0.13;0.13;;;;;;;8.23;100.00;98334.44;5023222;28;20025;-85
2021/10/10 02:11:19;;;;;;;0.30;0.30;;;;;;;8.10;100.00;98323.41;5014782;28;20021;-85
2021/10/10 02:13:44;;;;;;;1.23;0.55;;;;;;;8.13;100.00;98333.94;5014349;28;20480;-85
2021/10/10 02:16:11;;;;;;;0.32;0.32;;;;;;;8.10;100.00;98331.41;5031236;28;20024;-85
2021/10/10 02:18:36;;;;;;;0.63;0.63;;;;;;;8.16;100.00;98339.16;5014715;28;20018;-84
2021/10/10 02:21:02;;;;;;;0.75;0.70;;;;;;;8.23;100.00;98333.56;5030586;28;20416;-85
2021/10/10 02:23:28;;;;;;;0.10;0.10;;;;;;;8.25;100.00;98337.03;5014910;28;20029;-85
2021/10/10 02:25:53;;;;;;;0.40;0.40;;;;;;;8.29;100.00;98336.03;5031109;28;20041;-85
2021/10/10 02:28:19;;;;;;;0.10;0.10;;;;;;;8.28;100.00;98344.94;5014784;28;20036;-84
2021/10/10 02:30:47;;;;;;;0.57;0.40;;;;;;;8.32;100.00;98334.09;5014695;28;20034;-85
2021/10/10 02:33:13;;;;;;;1.33;1.23;;;;;;;8.31;100.00;98331.50;5015366;28;20022;-85
2021/10/10 02:35:39;;;;;;;0.43;0.43;;;;;;;8.21;100.00;98332.78;5030983;28;20566;-85
2021/10/10 02:38:04;;;;;;;0.63;0.63;;;;;;;8.13;100.00;98327.72;5013843;28;20536;-85
2021/10/10 02:40:30;;;;;;;1.05;1.00;;;;;;;8.07;100.00;98320.84;5031124;28;20148;-85
2021/10/10 02:42:55;;;;;;;0.65;0.65;;;;;;;8.14;100.00;98327.69;5012133;28;20091;-85
2021/10/10 02:45:21;;;;;;;0.43;0.38;;;;;;;8.17;100.00;98330.22;5014029;28;20029;-86
2021/10/10 02:47:47;;;;;;;0.40;0.40;;;;;;;8.24;100.00;98330.00;5014297;28;20025;-85
2021/10/10 02:50:12;;;;;;;0.13;0.13;;;;;;;8.09;100.00;98332.31;5014460;28;20048;-85
2021/10/10 02:52:38;;;;;;;0.32;0.32;;;;;;;8.11;100.00;98324.28;5014348;28;20037;-85
2021/10/10 02:55:04;;;;;;;0.75;0.47;;;;;;;8.15;100.00;98328.56;5014458;28;20029;-85
2021/10/10 02:57:30;;;;;;;0.65;0.17;;;;;;;8.13;100.00;98323.28;5014238;28;20032;-85
2021/10/10 03:03:08;;;;;;;0.40;0.40;;;;;;;8.23;100.00;98336.25;5030395;28;20037;-85
2021/10/10 03:05:34;;;;;;;0.77;0.40;;;;;;;8.29;100.00;98349.34;5031525;28;20029;-85
2021/10/10 03:08:36;;;;;;;0.50;0.50;;;;;;;8.31;100.00;98337.69;5014407;28;20033;-86
2021/10/10 03:11:02;;;;;;;0.50;0.20;;;;;;;8.24;100.00;98324.66;5030804;28;20029;-85
2021/10/10 03:13:27;;;;;;;0.82;0.82;;;;;;;8.25;100.00;98321.91;5030431;28;20535;-85
2021/10/10 03:15:54;;;;;;;1.52;1.15;;;;;;;8.26;100.00;98333.44;5014877;28;20037;-85
2021/10/10 03:18:20;;;;;;;0.28;0.28;;;;;;;8.31;100.00;98331.50;5014215;28;20032;-85
2021/10/10 03:20:45;;;;;;;0.25;0.25;;;;;;;8.30;100.00;98333.31;5014244;28;20037;-85
2021/10/10 03:23:11;;;;;;;1.48;0.93;;;;;;;8.35;100.00;98333.09;5014154;28;20041;-85
2021/10/10 03:25:36;;;;;;;0.43;0.30;;;;;;;8.32;100.00;98325.25;5013943;28;20057;-85
2021/10/10 03:28:02;;;;;;;0.35;0.30;;;;;;;8.30;100.00;98327.09;5013943;28;20435;-85
2021/10/10 03:30:28;;;;;;;1.17;0.68;;;;;;;8.30;100.00;98325.31;5047085;28;20026;-85
2021/10/10 03:32:53;;;;;;;0.40;0.40;;;;;;;8.38;100.00;98317.00;5013569;28;20029;-85
2021/10/10 03:35:19;;;;;;;0.60;0.40;;;;;;;8.33;100.00;98324.31;5014525;28;20032;-85
2021/10/10 03:37:44;;;;;;;1.30;0.65;;;;;;;8.23;100.00;98323.78;5030092;28;20116;-85
2021/10/10 03:40:11;;;;;;;0.45;0.45;;;;;;;8.29;100.00;98328.03;5029950;28;20029;-85
2021/10/10 03:42:38;;;;;;;0.25;0.25;;;;;;;8.27;100.00;98313.88;5014085;28;20032;-85
2021/10/10 03:45:05;;;;;;;0.73;0.73;;;;;;;8.39;100.00;98334.72;5010635;28;20030;-85
2021/10/10 03:47:30;;;;;;;1.08;0.50;;;;;;;8.41;100.00;98320.41;5013671;28;20040;-85
2021/10/10 03:49:56;;;;;;;1.73;1.35;;;;;;;8.45;100.00;98318.47;5013657;28;20038;-85
2021/10/10 03:52:22;;;;;;;1.30;0.95;;;;;;;8.39;100.00;98318.72;5030203;28;20482;-85
2021/10/10 03:57:31;;;;;;;0.85;0.60;;;;;;;8.36;100.00;98324.19;5023886;28;20029;-86
2021/10/10 04:00:00;;;;;;;1.38;0.70;;;;;;;8.49;100.00;98331.59;5013852;28;20412;-85
2021/10/10 04:02:25;;;;;;;0.50;0.50;;;;;;;8.43;100.00;98326.53;5029054;28;20059;-86
2021/10/10 04:04:52;;;;;;;1.55;1.45;;;;;;;8.37;100.00;98326.78;5014184;28;20029;-86
2021/10/10 04:07:18;;;;;;;1.55;1.45;;;;;;;8.35;100.00;98325.13;5030083;28;20036;-85
2021/10/10 04:09:44;;;;;;;3.67;1.63;;;;;;;8.31;100.00;98327.03;5013597;28;20034;-85
2021/10/10 04:12:10;;;;;;;1.58;1.48;;;;;;;8.28;100.00;98327.16;5016246;28;20136;-85
2021/10/10 04:14:35;;;;;;;0.52;0.52;;;;;;;8.22;100.00;98323.81;5010527;28;20037;-85
2021/10/10 04:17:01;;;;;;;2.63;2.13;;;;;;;8.11;100.00;98318.94;5017073;28;20484;-85
2021/10/10 04:19:27;;;;;;;5.50;2.50;;;;;;;8.18;100.00;98328.44;5017391;28;20455;-85
2021/10/10 04:21:52;;;;;;;3.67;3.25;;;;;;;8.20;100.00;98318.56;5017479;28;20041;-85
2021/10/10 04:24:18;;;;;;;2.25;1.52;;;;;;;8.28;100.00;98326.28;5016946;28;20029;-84
2021/10/10 04:26:43;;;;;;;7.53;1.52;;;;;;;8.17;100.00;98322.25;5033495;28;20037;-74
2021/10/10 04:29:09;;;;;;;2.58;1.77;;;;;;;8.17;100.00;98327.56;5031204;28;20033;-85
2021/10/10 04:31:35;;;;;;;2.05;1.65;;;;;;;8.17;100.00;98324.91;5016932;28;20026;-85
2021/10/10 04:34:01;;;;;;;3.08;1.83;;;;;;;8.14;100.00;98314.38;5033566;28;20037;-85
2021/10/10 04:36:26;;;;;;;1.10;0.77;;;;;;;8.23;100.00;98321.13;5020537;28;20527;-85
2021/10/10 04:38:52;;;;;;;1.80;1.70;;;;;;;8.15;100.00;98325.91;5019399;28;20110;-86
2021/10/10 04:41:18;;;;;;;1.88;1.60;;;;;;;8.22;100.00;98329.16;5024463;28;20032;-85
2021/10/10 04:43:43;;;;;;;2.45;1.17;;;;;;;8.25;100.00;98332.56;5019991;28;20029;-85
2021/10/10 04:46:09;;;;;;;2.90;1.60;;;;;;;8.21;100.00;98330.09;5050370;28;20017;-85
2021/10/10 04:48:34;;;;;;;3.88;2.00;;;;;;;8.17;100.00;98330.22;5035757;28;20037;-85
2021/10/10 04:51:00;;;;;;;2.03;1.27;;;;;;;8.13;100.00;98336.59;5028583;28;20086;-86
2021/10/10 04:53:25;;;;;;;2.83;0.98;;;;;;;8.21;100.00;98335.44;5035933;28;20472;-85
2021/10/10 04:55:51;;;;;;;3.45;2.35;;;;;;;8.27;100.00;98330.75;5030706;28;20040;-85
2021/10/10 04:58:17;;;;;;;2.17;1.75;;;;;;;8.31;100.00;98332.34;5019755;28;20108;-85
2021/10/10 05:00:42;;;;;;;1.27;1.17;;;;;;;8.32;100.00;98331.44;5034359;28;20029;-84
2021/10/10 05:03:08;;;;;;;1.05;0.88;;;;;;;8.35;100.00;98338.44;5029729;28;20029;-84
2021/10/10 05:05:34;;;;;;;1.75;1.40;;;;;;;8.38;100.00;98343.66;5032339;28;20443;-84
2021/10/10 05:07:59;;;;;;;2.03;1.92;;;;;;;8.34;100.00;98334.03;5026617;28;20057;-85
2021/10/10 05:10:25;;;;;;;0.95;0.90;;;;;;;8.34;100.00;98347.34;5023772;28;20037;-85
2021/10/10 05:12:51;;;;;;;2.95;2.65;;;;;;;8.33;100.00;98337.66;5017768;28;20480;-86
2021/10/10 05:15:16;;;;;;;4.72;3.53;;;;;;;8.34;100.00;98344.69;5029170;28;20079;-86
2021/10/10 05:17:42;;;;;;;1.77;1.65;;;;;;;8.24;100.00;98330.00;5022811;28;20512;-86
2021/10/10 05:20:08;;;;;;;3.70;1.25;;;;;;;8.36;100.00;98350.84;5019007;28;20025;-86
2021/10/10 05:22:33;;;;;;;1.10;1.00;;;;;;;8.34;100.00;98350.91;5018637;28;20036;-86
2021/10/10 05:25:00;;;;;;;2.75;2.08;;;;;;;8.17;100.00;98353.34;5030500;28;20500;-86
2021/10/10 05:27:26;;;;;;;1.63;1.52;;;;;;;8.10;100.00;98360.69;5014034;28;20496;-84
2021/10/10 05:29:52;;;;;;;1.10;1.00;;;;;;;8.15;100.00;98364.03;5037432;28;20071;-85
2021/10/10 05:32:18;;;;;;;1.13;0.98;;;;;;;8.16;100.00;98355.13;5021369;28;20036;-85
2021/10/10 05:34:43;;;;;;;0.52;0.52;;;;;;;8.17;100.00;98345.34;5035147;28;20037;-85
2021/10/10 05:37:09;;;;;;;3.25;1.58;;;;;;;8.18;100.00;98355.94;5012475;28;20103;-85
2021/10/10 05:39:35;;;;;;;0.50;0.50;;;;;;;8.27;100.00;98351.19;5013712;28;20025;-85
2021/10/10 05:42:10;;;;;;;2.30;2.10;;;;;;;8.37;100.00;98360.56;5017766;28;20110;-85
2021/10/10 05:44:35;;;;;;;1.63;1.25;;;;;;;8.20;100.00;98355.88;5030536;28;20029;-87
2021/10/10 05:47:01;;;;;;;3.85;2.25;;;;;;;8.18;100.00;98350.59;5015330;28;20033;-86
2021/10/10 05:49:26;;;;;;;5.70;3.17;;;;;;;8.10;100.00;98357.16;5019564;28;20029;-85
2021/10/10 05:51:52;;;;;;;1.98;1.85;;;;;;;8.02;100.00;98351.28;4996882;28;20065;-86
2021/10/10 05:54:18;;;;;;;7.93;2.60;;;;;;;8.10;100.00;98355.38;5026783;28;20041;-86
2021/10/10 05:56:43;;;;;;;1.90;1.75;;;;;;;8.09;100.00;98358.13;5015610;28;20041;-85
2021/10/10 05:59:11;;;;;;;2.22;1.90;;;;;;;8.07;100.00;98350.16;5015262;28;20021;-85
2021/10/10 06:01:37;;;;;;;2.90;1.55;;;;;;;7.99;100.00;98349.59;5012294;28;20040;-86
2021/10/10 06:04:03;;;;;;;2.72;1.83;;;;;;;8.07;100.00;98350.16;5015212;28;20033;-86
2021/10/10 06:06:29;;;;;;;2.53;1.60;;;;;;;8.14;100.00;98354.34;5031696;28;20503;-85
2021/10/10 06:08:55;;;;;;;2.30;1.58;;;;;;;8.26;100.00;98349.44;5015357;28;20030;-86
2021/10/10 06:11:20;;;;;;;1.85;1.52;;;;;;;8.32;100.00;98359.88;5034513;28;20033;-86
2021/10/10 06:13:46;;;;;;;1.73;1.58;;;;;;;8.40;100.00;98366.63;5015095;28;20044;-85
2021/10/10 06:16:12;;;;;;;3.78;2.13;;;;;;;8.46;100.00;98349.56;5008760;28;20530;-85
2021/10/10 06:18:38;;;;;;;1.48;1.33;;;;;;;8.47;100.00;98349.47;5014673;28;20112;-89
2021/10/10 06:21:03;;;;;;;3.63;1.80;;;;;;;8.56;100.00;98359.75;5031293;28;20427;-90
2021/10/10 06:23:29;;;;;;;3.22;2.85;;;;;;;8.41;100.00;98367.50;5034176;28;20451;-84
2021/10/10 06:25:55;;;;;;;1.45;1.02;;;;;;;8.40;100.00;98363.13;5015277;28;20030;-87
2021/10/10 06:28:20;;;;;;;1.90;1.50;;;;;;;8.47;100.00;98362.81;5018766;28;20022;-87
2021/10/10 06:30:46;;;;;;;2.85;1.85;;;;;;;8.50;100.00;98362.69;5012923;28;20408;-86
2021/10/10 06:33:11;;;;;;;2.58;1.90;;;;;;;8.50;100.00;98353.81;5015180;28;20162;-86
2021/10/10 06:35:37;;;;;;;4.00;1.67;;;;;;;8.50;100.00;98356.47;5015027;28;20025;-88
2021/10/10 06:38:03;;;;;;;1.77;1.65;;;;;;;8.61;100.00;98351.59;5017288;28;20053;-87
2021/10/10 06:40:28;;;;;;;21.25;1.95;;;;;;;8.64;100.00;98346.13;5012996;28;20036;-88
2021/10/10 06:42:54;;;;;;;4.88;1.30;;;;;;;8.53;100.00;98341.22;5020602;28;20029;-89
2021/10/10 06:45:19;;;;;;;4.25;1.80;;;;;;;8.49;100.00;98333.44;5036998;28;20029;-87
2021/10/10 06:47:45;;;;;;;1.80;1.70;;;;;;;8.58;100.00;98333.91;5016462;28;20034;-88
2021/10/10 06:50:11;;;;;;;2.65;2.10;;;;;;;8.65;100.00;98351.38;5027945;28;20022;-87
2021/10/10 06:52:36;;;;;;;3.60;3.25;;;;;;;8.66;100.00;98337.13;5027290;28;20480;-87
2021/10/10 06:55:03;;;;;;;3.88;1.55;;;;;;;8.74;100.00;98349.28;5019907;28;20550;-88
2021/10/10 06:57:30;;;;;;;3.15;2.60;;;;;;;8.76;100.00;98342.94;5019294;28;20061;-86
2021/10/10 06:59:58;;;;;;;1.92;1.83;;;;;;;8.81;100.00;98348.94;5012193;28;20037;-86
2021/10/10 07:02:24;;;;;;;2.22;1.80;;;;;;;8.77;100.00;98326.00;5040598;28;20025;-84
2021/10/10 07:04:51;;;;;;;1.55;1.45;;;;;;;8.93;100.00;98350.22;5023084;28;20040;-85
2021/10/10 07:07:16;;;;;;;4.57;1.80;;;;;;;8.88;100.00;98342.44;5013788;28;20444;-86
2021/10/10 07:09:42;;;;;;;4.07;2.70;;;;;;;8.92;100.00;98344.00;5044463;28;20033;-85
2021/10/10 07:12:08;;;;;;;3.35;1.50;;;;;;;9.07;100.00;98351.41;5019656;28;20389;-85
2021/10/10 07:14:33;;;;;;;5.35;3.70;;;;;;;8.99;100.00;98334.81;5017662;28;20037;-85
2021/10/10 07:16:59;;;;;;;7.07;3.58;;;;;;;9.05;100.00;98357.69;5016066;28;20034;-76
2021/10/10 07:19:32;;;;;;;4.50;3.08;;;;;;;8.86;100.00;98352.28;5024278;28;20108;-85
2021/10/10 07:22:00;;;;;;;2.78;1.60;;;;;;;8.71;100.00;98345.78;5023943;28;20033;-85
2021/10/10 07:27:10;;;;;;;3.08;2.60;;;;;;;8.77;100.00;98343.81;5031794;28;20056;-84
2021/10/10 07:29:36;;;;;;;1.95;1.27;;;;;;;8.74;100.00;98336.78;5023933;28;20472;-84
2021/10/10 07:32:03;;;;;;;2.83;2.13;;;;;;;8.79;100.00;98340.16;5022281;28;20061;-84
2021/10/10 07:34:29;;;;;;;1.63;1.52;;;;;;;8.86;100.00;98360.28;5015817;28;20018;-76
2021/10/10 07:36:54;;;;;;;6.45;1.67;;;;;;;8.92;100.00;98362.69;5030776;28;20487;-89
2021/10/10 07:39:20;;;;;;;1.55;1.45;;;;;;;8.96;100.00;98352.75;5028697;28;20071;-85
2021/10/10 07:41:46;;;;;;;1.55;1.33;;;;;;;9.17;100.00;98374.06;5013186;28;20043;-86
2021/10/10 07:44:12;;;;;;;1.55;1.45;;;;;;;9.15;100.00;98370.59;5012725;28;20033;-86
2021/10/10 07:46:41;;;;;;;2.47;2.28;;;;;;;8.94;100.00;98350.19;5014618;28;20094;-83
2021/10/10 07:49:08;;;;;;;0.98;0.88;;;;;;;9.12;100.00;98367.19;5016495;28;20021;-88
2021/10/10 07:51:34;;;;;;;7.93;1.80;;;;;;;9.05;100.00;98350.56;5014928;28;20128;-85
2021/10/10 07:54:00;;;;;;;4.30;2.42;;;;;;;9.19;100.00;98356.19;5015832;28;20515;-87
2021/10/10 07:56:26;;;;;;;4.65;1.08;;;;;;;9.21;100.00;98367.66;5011989;28;20060;-83
2021/10/10 07:59:03;;;;;;;2.63;2.35;;;;;;;8.90;100.00;98348.56;5033061;28;20025;-89
2021/10/10 08:01:29;;;;;;;9.32;3.50;;;;;;;9.11;100.00;98363.66;5030249;28;20465;-75
2021/10/10 08:03:54;;;;;;;4.95;2.08;;;;;;;9.10;100.00;98377.94;5032601;28;20025;-80
2021/10/10 08:06:20;;;;;;;7.18;2.70;;;;;;;8.92;100.00;98378.69;5032420;28;20048;-75
2021/10/10 08:08:46;;;;;;;3.47;3.15;;;;;;;8.95;100.00;98383.06;5013832;28;20522;-75
2021/10/10 08:11:19;;;;;;;2.60;1.85;;;;;;;9.02;100.00;98388.06;5013873;28;20392;-75
2021/10/10 08:13:45;;;;;;;2.90;1.70;;;;;;;8.95;100.00;98385.72;5030432;28;20128;-81
2021/10/10 08:16:10;;;;;;;5.43;3.33;;;;;;;8.88;100.00;98376.25;5032468;28;20059;-75
2021/10/10 08:18:39;;;;;;;3.70;1.13;;;;;;;9.09;100.00;98384.22;5030411;28;20036;-76
2021/10/10 08:21:05;;;;;;;1.40;1.25;;;;;;;9.10;100.00;98367.28;5029871;28;20025;-76
2021/10/10 08:23:34;;;;;;;7.57;1.73;;;;;;;9.20;100.00;98383.72;5042464;28;20488;-76
2021/10/10 08:26:07;;;;;;;1.40;1.10;;;;;;;9.16;100.00;98376.81;5019993;28;20049;-77
2021/10/10 08:28:42;;;;;;;1.85;1.17;;;;;;;9.25;100.00;98361.28;5042333;28;20033;-76
2021/10/10 08:31:07;;;;;;;4.95;2.28;;;;;;;9.39;100.00;98381.13;5017925;28;20029;-80
2021/10/10 08:33:33;;;;;;;20.90;1.42;;;;;;;9.38;100.00;98374.97;5031493;28;20575;-76
2021/10/10 08:35:58;;;;;;;3.45;1.80;;;;;;;9.41;100.00;98392.63;4968391;28;1395242;-77
2021/10/10 08:38:24;;;;;;;1.15;1.05;;;;;;;9.45;100.00;98388.88;5022624;28;20669;-77
2021/10/10 08:40:50;;;;;;;0.85;0.85;;;;;;;9.50;100.00;98381.56;5042558;28;20048;-76
2021/10/10 08:43:18;;;;;;;1.67;1.58;;;;;;;9.39;100.00;98400.69;5039574;28;20480;-76
2021/10/10 08:45:50;;;;;;;2.33;0.88;;;;;;;9.33;100.00;98405.44;5041648;28;20420;-76
2021/10/10 08:48:19;;;;;;;1.40;1.00;;;;;;;8.95;100.00;98354.56;5006248;28;20033;-76
2021/10/10 08:50:47;;;;;;;6.07;2.25;;;;;;;8.96;100.00;98368.78;5024856;28;20040;-76
2021/10/10 08:53:18;;;;;;;1.38;1.25;;;;;;;9.19;100.00;98398.03;5053611;28;20052;-76
2021/10/10 08:55:44;;;;;;;4.25;3.40;;;;;;;9.03;100.00;98384.47;5035786;28;20028;-76
2021/10/10 08:58:10;;;;;;;6.00;2.40;;;;;;;9.04;100.00;98388.88;5042821;28;20489;-78
2021/10/10 09:01:12;;;;;;;7.82;0.93;;;;;;;9.07;100.00;98385.22;5019486;28;20127;-77
2021/10/10 09:03:38;;;;;;;1.88;1.40;;;;;;;8.85;100.00;98350.56;5046563;28;20595;-76
2021/10/10 09:06:03;;;;;;;5.90;3.42;;;;;;;9.03;100.00;98381.81;5053347;28;20052;-76
2021/10/10 09:08:29;;;;;;;10.40;2.80;;;;;;;8.94;100.00;98378.66;5053189;28;20116;-76
2021/10/10 09:11:00;;;;;;;5.70;3.25;;;;;;;9.09;100.00;98394.00;5035629;28;20112;-76
2021/10/10 09:13:37;;;;;;;6.38;3.80;;;;;;;9.15;100.00;98391.09;5019311;28;20094;-76
2021/10/10 09:16:05;;;;;;;2.05;1.92;;;;;;;9.20;100.00;98383.72;5024063;28;20458;-76
2021/10/10 09:18:35;;;;;;;8.90;2.33;;;;;;;8.90;100.00;98375.25;5019268;28;20025;-76
2021/10/10 09:21:23;;;;;;;1.75;1.63;;;;;;;9.02;100.00;98377.38;5018976;28;20024;-76
2021/10/10 09:23:56;;;;;;;4.57;3.08;;;;;;;9.07;100.00;98361.19;5030591;28;20025;-76
2021/10/10 09:26:23;;;;;;;6.35;3.67;;;;;;;9.39;100.00;98378.47;5051586;28;20039;-75
2021/10/10 09:28:49;;;;;;;1.17;0.80;;;;;;;9.37;100.00;98375.00;5045023;28;20021;-75
2021/10/10 09:31:15;;;;;;;3.28;1.52;;;;;;;9.54;100.00;98372.44;5034985;28;20549;-75
2021/10/10 09:33:55;;;;;;;0.43;0.43;;;;;;;9.71;100.00;98381.47;5042660;28;20021;-75
2021/10/10 09:36:25;;;;;;;2.85;1.48;;;;;;;9.67;100.00;98379.84;5052767;28;20437;-88
2021/10/10 09:38:59;;;;;;;1.42;1.33;;;;;;;9.69;100.00;98382.47;5021151;28;20082;-88
2021/10/10 09:41:29;;;;;;;6.47;1.30;;;;;;;9.62;100.00;98378.31;5042087;28;20530;-88
2021/10/10 09:44:56;;;;;;;2.25;0.82;;;;;;;9.46;100.00;98385.28;5035406;28;20029;-87
2021/10/10 09:47:02;;;;;;;4.15;2.60;;;;;;;9.42;100.00;98367.66;5032301;28;20033;-87
2021/10/10 09:49:32;;;;;;;3.28;1.70;;;;;;;9.49;100.00;98382.47;5019182;28;20071;-88
2021/10/10 09:52:07;;;;;;;2.33;1.85;;;;;;;9.58;100.00;98382.06;5024936;28;20032;-88
2021/10/10 09:54:53;;;;;;;0.95;0.95;;;;;;;9.65;100.00;98375.53;5039531;28;20021;-88
2021/10/10 09:57:20;;;;;;;0.57;0.57;;;;;;;9.65;100.00;98365.72;5018667;28;20029;-88
2021/10/10 09:59:46;;;;;;;1.45;1.35;;;;;;;9.59;100.00;98367.78;5026271;28;20021;-89
2021/10/10 10:02:12;;;;;;;0.60;0.60;;;;;;;9.62;100.00;98370.31;5018955;28;20031;-89
2021/10/10 10:04:45;;;;;;;0.82;0.80;;;;;;;9.79;100.00;98368.59;5018331;28;20067;-88
2021/10/10 10:07:15;;;;;;;0.85;0.85;;;;;;;9.85;100.00;98378.16;5019109;28;20488;-88
2021/10/10 10:09:41;;;;;;;2.95;2.10;;;;;;;9.72;100.00;98360.97;5019215;28;20028;-89
2021/10/10 10:12:07;;;;;;;3.35;2.33;;;;;;;9.68;100.00;98367.38;5033375;28;20106;-89
2021/10/10 10:14:34;;;;;;;3.80;2.00;;;;;;;9.57;100.00;98362.50;5025845;28;20025;-88
2021/10/10 10:17:02;;;;;;;6.15;2.50;;;;;;;9.42;100.00;98365.84;5035805;28;20502;-89
2021/10/10 10:19:28;;;;;;;2.05;1.33;;;;;;;9.27;100.00;98370.06;5033965;28;20025;-89
2021/10/10 10:21:56;;;;;;;2.33;2.08;;;;;;;9.34;100.00;98369.81;5027099;28;20040;-88
2021/10/10 10:24:23;;;;;;;5.15;2.70;;;;;;;9.24;100.00;98358.66;5036790;28;20071;-91
2021/10/10 10:26:49;;;;;;;6.65;2.65;;;;;;;9.35;100.00;98371.53;5037953;28;20151;-90
2021/10/10 10:29:18;;;;;;;5.97;1.45;;;;;;;9.54;100.00;98375.13;5024092;28;20480;-88
2021/10/10 10:31:46;;;;;;;4.15;1.67;;;;;;;9.62;100.00;98364.97;5025436;28;20036;-90
2021/10/10 10:34:24;;;;;;;9.85;2.90;;;;;;;9.45;100.00;98360.38;5019102;28;20090;-90
2021/10/10 10:37:05;;;;;;;2.35;1.60;;;;;;;9.44;100.00;98368.47;5032339;28;20200;-89
2021/10/10 10:39:47;;;;;;;6.00;2.50;;;;;;;9.57;100.00;98366.97;5032776;28;20035;-89
2021/10/10 10:42:37;;;;;;;2.83;2.58;;;;;;;9.51;100.00;98359.22;5012344;28;20552;-89
2021/10/10 10:45:36;;;;;;;6.57;2.92;;;;;;;9.49;100.00;98370.00;5014266;28;20045;-89
2021/10/10 10:48:31;;;;;;;7.10;3.25;;;;;;;9.32;100.00;98358.34;5014936;28;20473;-88
2021/10/10 10:51:17;;;;;;;2.22;1.90;;;;;;;9.40;100.00;98356.19;5032839;28;20040;-90
2021/10/10 10:53:43;;;;;;;2.58;1.17;;;;;;;9.28;100.00;98357.59;5032031;28;20048;-89
2021/10/10 10:56:24;;;;;;;2.90;2.00;;;;;;;9.46;100.00;98358.56;5031939;28;20029;-88
2021/10/10 10:58:50;;;;;;;2.15;1.60;;;;;;;9.43;100.00;98348.91;5015454;28;20120;-89
2021/10/10 11:01:15;;;;;;;2.78;2.42;;;;;;;9.37;100.00;98351.84;5015075;28;20053;-89
2021/10/10 11:03:41;;;;;;;1.88;1.05;;;;;;;9.35;100.00;98350.19;5015417;28;20065;-89
2021/10/10 11:06:06;;;;;;;4.10;2.13;;;;;;;9.44;100.00;98363.13;5015842;28;20036;-88
2021/10/10 11:08:42;;;;;;;1.83;1.23;;;;;;;9.52;100.00;98358.31;5032423;28;20030;-90
2021/10/10 11:11:15;;;;;;;3.58;1.33;;;;;;;9.57;100.00;98356.28;5032596;28;20063;-89
2021/10/10 11:13:42;;;;;;;1.38;1.17;;;;;;;9.58;100.00;98353.56;5035033;28;20532;-89
2021/10/10 11:16:25;;;;;;;1.67;1.10;;;;;;;9.70;100.00;98362.81;5033890;28;20066;-90
2021/10/10 11:18:52;;;;;;;1.70;1.58;;;;;;;9.76;100.00;98370.56;5034355;28;20026;-90
2021/10/10 11:21:24;;;;;;;3.15;2.55;;;;;;;9.81;100.00;98360.53;5031625;28;20116;-90
2021/10/10 11:23:54;;;;;;;3.72;2.28;;;;;;;9.69;100.00;98353.94;5015124;28;20084;-90
2021/10/10 11:26:20;;;;;;;3.78;1.90;;;;;;;9.66;100.00;98351.41;5015066;28;20033;-90
2021/10/10 11:28:47;;;;;;;5.78;3.38;;;;;;;9.40;100.00;98338.38;5015894;28;20029;-90
2021/10/10 11:31:13;;;;;;;2.65;2.42;;;;;;;9.39;100.00;98346.44;5031134;28;20029;-88
2021/10/10 11:33:45;;;;;;;12.75;2.22;;;;;;;9.12;100.00;98337.84;5031667;28;20127;-89
2021/10/10 11:36:11;;;;;;;3.28;2.42;;;;;;;9.12;100.00;98349.38;5014390;28;20608;-89
2021/10/10 11:39:10;;;;;;;6.82;3.05;;;;;;;9.17;100.00;98352.72;5014856;28;20116;-89
2021/10/10 11:41:38;;;;;;;3.05;2.15;;;;;;;9.14;100.00;98354.63;4982625;28;20135;-88
2021/10/10 11:44:09;;;;;;;5.40;3.05;;;;;;;9.22;100.00;98353.41;5032068;28;20063;-89
2021/10/10 11:46:45;;;;;;;3.58;2.22;;;;;;;9.14;100.00;98336.81;5014507;28;20032;-89